createdAt,value
2022-11-03T00:00:32.461Z,21.96
2022-11-03T00:05:53.859Z,21.93
2022-11-03T00:11:03.196Z,21.88
2022-11-03T00:16:06.479Z,21.88
2022-11-03T00:21:11.355Z,21.83
2022-11-03T00:26:14.817Z,21.79
2022-11-03T00:31:18.373Z,21.73
2022-11-03T00:36:22.923Z,21.66
2022-11-03T00:41:25.897Z,21.63
2022-11-03T00:46:30.236Z,21.58
2022-11-03T00:51:36.024Z,21.53
2022-11-03T00:56:39.563Z,21.47
2022-11-03T01:01:46.729Z,21.43
2022-11-03T01:06:53.375Z,21.38
2022-11-03T01:11:59.806Z,21.30
2022-11-03T01:17:02.692Z,21.23
2022-11-03T01:22:09.700Z,21.21
2022-11-03T01:27:15.170Z,21.16
2022-11-03T01:32:17.842Z,21.13
2022-11-03T01:37:21.847Z,21.04
2022-11-03T01:42:24.519Z,21.07
2022-11-03T01:47:28.011Z,21.01
2022-11-03T01:52:36.531Z,20.98
2022-11-03T01:57:40.819Z,20.94
2022-11-03T02:02:43.741Z,20.91
2022-11-03T02:07:50.959Z,20.87
2022-11-03T02:12:53.738Z,20.86
2022-11-03T02:17:56.404Z,20.82
2022-11-03T02:23:14.592Z,20.80
2022-11-03T02:28:19.352Z,20.81
2022-11-03T02:33:29.674Z,20.80
2022-11-03T02:38:32.914Z,20.75
2022-11-03T02:43:36.905Z,20.75
2022-11-03T02:48:39.546Z,20.72
2022-11-03T02:53:45.206Z,20.70
2022-11-03T02:58:52.817Z,20.68
2022-11-03T03:03:56.387Z,20.66
2022-11-03T03:09:04.885Z,20.63
2022-11-03T03:14:10.664Z,20.61
2022-11-03T03:19:19.443Z,20.59
2022-11-03T03:24:26.598Z,20.58
2022-11-03T03:29:34.699Z,20.56
2022-11-03T03:34:37.738Z,20.54
2022-11-03T03:39:40.892Z,20.49
2022-11-03T03:44:44.949Z,20.48
2022-11-03T03:49:47.649Z,20.46
2022-11-03T03:54:50.379Z,20.48
2022-11-03T03:59:54.549Z,20.46
2022-11-03T04:04:58.396Z,20.45
2022-11-03T04:10:01.133Z,20.43
2022-11-03T04:15:22.787Z,20.42
2022-11-03T04:20:43.095Z,20.41
2022-11-03T04:25:50.682Z,20.44
2022-11-03T04:30:58.762Z,20.42
2022-11-03T04:36:02.166Z,20.43
2022-11-03T04:41:08.438Z,20.44
2022-11-03T04:46:13.176Z,20.47
2022-11-03T04:51:17.217Z,20.44
2022-11-03T04:56:21.738Z,20.41
2022-11-03T05:01:26.111Z,20.39
2022-11-03T05:06:29.718Z,20.39
2022-11-03T05:11:33.447Z,20.39
2022-11-03T05:16:37.666Z,20.36
2022-11-03T05:21:40.372Z,20.34
2022-11-03T05:26:43.094Z,20.35
2022-11-03T05:31:48.303Z,20.33
2022-11-03T05:36:50.954Z,20.32
2022-11-03T05:41:53.591Z,20.32
2022-11-03T05:46:58.120Z,20.31
2022-11-03T05:52:00.768Z,20.30
2022-11-03T05:57:03.409Z,20.27
2022-11-03T06:02:12.373Z,20.25
2022-11-03T06:07:17.834Z,20.25
2022-11-03T06:12:21.261Z,20.24
2022-11-03T06:17:26.410Z,20.20
2022-11-03T06:22:30.473Z,20.20
2022-11-03T06:27:33.120Z,20.20
2022-11-03T06:32:37.124Z,20.18
2022-11-03T06:37:39.803Z,20.16
2022-11-03T06:42:42.737Z,20.19
2022-11-03T06:47:47.849Z,20.16
2022-11-03T06:52:50.535Z,20.19
2022-11-03T06:57:55.246Z,20.18
2022-11-03T07:03:02.460Z,20.20
2022-11-03T07:08:12.403Z,20.18
2022-11-03T07:13:16.609Z,20.19
2022-11-03T07:18:23.480Z,20.21
2022-11-03T07:23:27.246Z,20.21
2022-11-03T07:28:32.862Z,20.20
2022-11-03T07:33:36.880Z,20.23
2022-11-03T07:38:39.748Z,20.23
2022-11-03T07:43:42.902Z,20.21
2022-11-03T07:48:47.846Z,20.23
2022-11-03T07:53:51.449Z,20.24
2022-11-03T07:58:55.611Z,20.27
2022-11-03T08:04:01.703Z,20.30
2022-11-03T08:09:04.449Z,20.31
2022-11-03T08:14:07.289Z,20.27
2022-11-03T08:19:11.389Z,20.23
2022-11-03T08:24:14.186Z,20.23
2022-11-03T08:29:17.574Z,20.24
2022-11-03T08:34:21.616Z,20.24
2022-11-03T08:39:24.263Z,20.27
2022-11-03T08:44:27.251Z,20.25
2022-11-03T08:49:31.270Z,20.25
2022-11-03T08:54:36.760Z,20.19
2022-11-03T08:59:39.495Z,19.27
2022-11-03T09:04:46.007Z,18.65
2022-11-03T09:15:11.618Z,18.97
2022-11-03T09:20:15.646Z,19.29
2022-11-03T09:25:18.955Z,19.45
2022-11-03T09:30:22.051Z,19.58
2022-11-03T09:35:26.313Z,19.62
2022-11-03T09:40:29.008Z,19.68
2022-11-03T09:45:31.673Z,19.78
2022-11-03T09:50:35.730Z,19.83
2022-11-03T09:55:38.364Z,19.90
2022-11-03T10:00:41.132Z,19.96
2022-11-03T10:05:45.582Z,20.00
2022-11-03T10:10:48.518Z,20.03
2022-11-03T10:15:51.229Z,20.06
2022-11-03T10:20:55.245Z,20.10
2022-11-03T10:26:00.948Z,20.12
2022-11-03T10:31:11.961Z,20.14
2022-11-03T10:36:25.316Z,20.20
2022-11-03T10:41:28.622Z,20.22
2022-11-03T10:51:58.532Z,20.33
2022-11-03T10:57:01.204Z,20.37
2022-11-03T11:02:04.054Z,20.39
2022-11-03T11:07:19.313Z,20.41
2022-11-03T11:12:23.399Z,20.06
2022-11-03T11:17:50.972Z,19.76
2022-11-03T11:22:55.029Z,19.65
2022-11-03T11:28:00.649Z,19.59
2022-11-03T11:33:13.793Z,19.45
2022-11-03T11:39:05.364Z,19.31
2022-11-03T11:44:41.382Z,19.46
2022-11-03T11:49:45.384Z,19.77
2022-11-03T11:54:48.059Z,19.97
2022-11-03T11:59:51.073Z,20.20
2022-11-03T12:04:59.562Z,20.34
2022-11-03T12:10:08.690Z,20.47
2022-11-03T12:15:48.715Z,20.57
2022-11-03T12:20:52.800Z,20.63
2022-11-03T12:25:55.473Z,20.64
2022-11-03T12:30:58.149Z,20.74
2022-11-03T12:36:02.157Z,20.84
2022-11-03T12:41:18.810Z,20.93
2022-11-03T12:46:23.027Z,21.06
2022-11-03T12:51:27.038Z,21.16
2022-11-03T12:56:29.738Z,21.14
2022-11-03T13:01:33.294Z,21.09
2022-11-03T13:06:37.671Z,21.06
2022-11-03T13:11:58.053Z,21.06
2022-11-03T13:17:03.655Z,21.04
2022-11-03T13:22:07.762Z,21.05
2022-11-03T13:27:10.630Z,21.01
2022-11-03T13:32:13.448Z,20.92
2022-11-03T13:37:17.549Z,20.82
2022-11-03T13:42:20.263Z,20.75
2022-11-03T13:47:34.272Z,20.78
2022-11-03T13:52:47.588Z,20.75
2022-11-03T14:08:36.994Z,20.76
2022-11-03T14:13:39.775Z,20.67
2022-11-03T14:18:42.426Z,20.67
2022-11-03T14:23:55.422Z,20.67
2022-11-03T14:28:58.207Z,20.67
2022-11-03T14:34:00.864Z,20.67
2022-11-03T14:39:04.950Z,20.64
2022-11-03T14:44:07.755Z,20.58
2022-11-03T14:49:10.425Z,20.58
2022-11-03T14:54:14.562Z,20.56
2022-11-03T14:59:17.227Z,20.53
2022-11-03T15:04:19.979Z,20.52
2022-11-03T15:09:24.083Z,20.51
2022-11-03T15:14:26.858Z,20.48
2022-11-03T15:19:29.526Z,20.42
2022-11-03T15:29:56.527Z,20.45
2022-11-03T15:34:59.990Z,20.43
2022-11-03T15:40:04.370Z,20.41
2022-11-03T15:45:08.536Z,20.36
2022-11-03T15:50:11.623Z,20.33
2022-11-03T15:55:15.972Z,20.35
2022-11-03T16:00:19.682Z,20.36
2022-11-03T16:05:25.174Z,20.32
2022-11-03T16:10:29.550Z,20.31
2022-11-03T16:15:32.186Z,20.37
2022-11-03T16:20:34.997Z,20.32
2022-11-03T16:25:39.512Z,20.32
2022-11-03T16:30:42.458Z,20.27
2022-11-03T16:35:45.161Z,20.32
2022-11-03T16:40:49.235Z,20.32
2022-11-03T16:45:51.980Z,20.32
2022-11-03T16:50:56.766Z,20.33
2022-11-03T16:56:01.012Z,20.34
2022-11-03T17:01:04.590Z,20.36
2022-11-03T17:06:07.621Z,20.38
2022-11-03T17:11:11.627Z,20.38
2022-11-03T17:16:14.298Z,20.38
2022-11-03T17:21:16.992Z,20.55
2022-11-03T17:26:22.850Z,20.68
2022-11-03T17:31:26.041Z,20.79
2022-11-03T17:36:28.712Z,20.90
2022-11-03T17:41:33.084Z,20.98
2022-11-03T17:46:35.737Z,20.96
2022-11-03T17:51:40.400Z,21.01
2022-11-03T17:56:44.434Z,21.05
2022-11-03T18:01:48.039Z,21.04
2022-11-03T18:06:50.818Z,21.07
2022-11-03T18:12:12.302Z,21.07
2022-11-03T18:17:15.047Z,21.06
2022-11-03T18:22:17.766Z,21.05
2022-11-03T18:27:25.261Z,21.01
2022-11-03T18:32:33.108Z,21.00
2022-11-03T18:37:38.533Z,20.96
2022-11-03T18:42:42.658Z,20.92
2022-11-03T18:47:45.586Z,20.87
2022-11-03T18:52:49.262Z,20.85
2022-11-03T18:57:53.575Z,20.86
2022-11-03T19:02:56.555Z,20.80
2022-11-03T19:07:59.297Z,20.75
2022-11-03T19:13:03.352Z,20.73
2022-11-03T19:18:06.853Z,20.68
2022-11-03T19:23:10.495Z,20.70
2022-11-03T19:28:15.613Z,20.67
2022-11-03T19:33:21.003Z,20.64
2022-11-03T19:38:23.850Z,20.61
2022-11-03T19:43:33.330Z,20.64
2022-11-03T19:48:37.295Z,20.61
2022-11-03T20:04:49.140Z,20.57
2022-11-03T20:09:51.751Z,20.54
2022-11-03T20:14:54.772Z,20.54
2022-11-03T20:19:58.835Z,20.60
2022-11-03T20:25:03.030Z,20.56
2022-11-03T20:30:07.218Z,20.61
2022-11-03T20:35:14.609Z,20.68
2022-11-03T20:40:20.389Z,20.82
2022-11-03T20:45:23.742Z,20.90
2022-11-03T20:50:30.632Z,20.93
2022-11-03T20:55:33.315Z,21.01
2022-11-03T21:00:35.930Z,21.09
2022-11-03T21:05:39.995Z,21.13
2022-11-03T21:10:42.588Z,21.15
2022-11-03T21:16:23.467Z,21.14
2022-11-03T21:21:27.160Z,21.23
2022-11-03T21:26:29.836Z,21.26
2022-11-03T21:31:32.510Z,21.27
2022-11-03T21:36:37.052Z,21.34
2022-11-03T21:41:57.454Z,21.39
2022-11-03T21:47:00.134Z,21.43
2022-11-03T21:52:04.302Z,21.49
2022-11-03T21:57:07.425Z,21.52
2022-11-03T22:02:10.963Z,21.55
2022-11-03T22:07:14.990Z,21.58
2022-11-03T22:12:17.786Z,21.55
2022-11-03T22:17:20.537Z,21.52
2022-11-03T22:22:42.431Z,21.53
2022-11-03T22:27:45.208Z,21.53
2022-11-03T22:32:51.228Z,21.52
2022-11-03T22:38:05.787Z,21.49
2022-11-03T22:43:35.462Z,21.51
2022-11-03T22:48:38.358Z,21.47
2022-11-03T22:54:00.283Z,21.49
2022-11-03T22:59:02.885Z,21.50
2022-11-03T23:04:06.567Z,21.51
2022-11-03T23:09:11.801Z,21.53
2022-11-03T23:14:14.411Z,21.50
2022-11-03T23:19:34.676Z,21.51
2022-11-03T23:25:07.618Z,21.52
2022-11-03T23:30:10.974Z,21.45
2022-11-03T23:35:14.565Z,21.46
2022-11-03T23:40:20.523Z,21.48
2022-11-03T23:45:41.692Z,21.47
2022-11-03T23:50:44.507Z,21.46
2022-11-03T23:56:02.415Z,21.49
